Florencia — IBPD — position and weather

sailwx.info

Track history (hours):
 
Tides and Currents Weather Stations Pressure Air Temp Water Temp Dewpoint Dewpoint Depression Visibility Wind Speed Wind Dir Waves Ship Positions

Florencia

Last reported at 2015-May-26 15:33 UTC. Time now 2015-May-26 15:52 UTC.
Position N 41°20' E 002°19'.

Length 186 m; draft 6.6 m.

Type: Passenger vessel. MMSI: 247105900.

Date/timePositionNaut miles runAvg speedWind from/ knotsBaromVisibWave heightAir tempDewpointWater temp
2015-May-26 15:33N 41°20' E 002°19'2219.4
2015-May-26 14:25N 41°31' E 002°45'23018.8
2015-May-26 02:14N 43°21' E 007°17'3520.3
2015-May-26 00:32N 43°42' E 007°55'2020.4
2015-May-25 23:32N 43°56' E 008°16'2020.3
2015-May-25 22:33N 44°13' E 008°31'6 6.0
2015-May-25 21:33N 44°19' E 008°30'0 0.0
2015-May-25 20:33N 44°19' E 008°30'0 0.0
2015-May-25 19:33N 44°19' E 008°30'0 0.0
2015-May-25 18:34N 44°19' E 008°30'0 0.0
2015-May-25 17:34N 44°19' E 008°30'0 0.0
2015-May-25 16:33N 44°19' E 008°30'0 0.0
2015-May-25 15:33N 44°19' E 008°30'0 0.0
2015-May-25 14:33N 44°19' E 008°30'0 0.0
2015-May-25 13:33N 44°19' E 008°30'0 0.0
2015-May-25 12:34N 44°19' E 008°30'0 0.0
2015-May-25 11:33N 44°19' E 008°30'0 0.0
2015-May-25 10:34N 44°19' E 008°30'0 0.0
2015-May-25 09:34N 44°19' E 008°30'0 0.0
2015-May-25 08:32N 44°19' E 008°30'0 0.0
2015-May-25 07:33N 44°19' E 008°30'0 0.0
2015-May-25 06:33N 44°19' E 008°30'0 0.0
2015-May-25 05:33N 44°19' E 008°30'0 0.0
2015-May-25 04:33N 44°19' E 008°30'0 0.0
2015-May-25 03:33N 44°19' E 008°30'0 0.0
2015-May-25 02:33N 44°19' E 008°30'0 0.0
2015-May-25 01:33N 44°19' E 008°30'0 0.0
2015-May-25 00:33N 44°19' E 008°30'0 0.0
2015-May-24 23:33N 44°19' E 008°30'0 0.0
2015-May-24 22:33N 44°19' E 008°30'0 0.0
2015-May-24 21:33N 44°19' E 008°30'0 0.0
2015-May-24 20:33N 44°19' E 008°30'0 0.0
2015-May-24 19:33N 44°19' E 008°30'0 0.0
2015-May-24 18:33N 44°19' E 008°30'2 2.5
2015-May-24 17:34N 44°17' E 008°32'2019.9
2015-May-24 16:33N 43°59' E 008°18'4019.7
2015-May-24 14:33N 43°33' E 007°37'23719.0
2015-May-24 02:05N 41°38' E 002°56'1220.6
2015-May-24 01:30N 41°32' E 002°42'2020.8
2015-May-24 00:33N 41°21' E 002°20'7 7.4
2015-May-23 23:32N 41°22' E 002°11'0 0.0
2015-May-23 22:33N 41°22' E 002°11'0 0.0
2015-May-23 20:18N 41°22' E 002°11'0 0.0
2015-May-23 19:33N 41°22' E 002°11'0 0.0
2015-May-23 18:33N 41°22' E 002°11'0 0.0
2015-May-23 17:33N 41°22' E 002°11'0 0.0
2015-May-23 16:24N 41°22' E 002°11'6 7.2
2015-May-23 15:32N 41°20' E 002°18'1919.1
2015-May-23 14:33N 41°28' E 002°41'2719.1
2015-May-23 13:09N 41°43' E 003°10'20819.4
2015-May-23 02:28N 43°23' E 007°18'1920.7
2015-May-23 01:33N 43°34' E 007°39'2120.9
2015-May-23 00:34N 43°46' E 008°02'2120.8
2015-May-22 23:34N 44°02' E 008°21'1818.4
2015-May-22 22:33N 44°19' E 008°30'0 0.5
2015-May-22 21:33N 44°19' E 008°30'0 0.0
2015-May-22 20:33N 44°19' E 008°30'0 0.0
2015-May-22 19:33N 44°19' E 008°30'0 0.0
2015-May-22 18:33N 44°19' E 008°30'0 0.0
2015-May-22 17:33N 44°19' E 008°30'1 0.9
2015-May-22 16:33N 44°18' E 008°31'1817.9
2015-May-22 15:33N 44°02' E 008°21'2019.5
2015-May-22 14:33N 43°48' E 008°02'2019.9
2015-May-22 13:33N 43°36' E 007°40'2120.4
2015-May-22 12:32N 43°23' E 007°18'7 0.2
2015-May-21 02:32N 43°18' E 007°10'1919.7
2015-May-21 01:33N 43°30' E 007°30'5020.5
2015-May-20 23:08N 44°03' E 008°22'1220.7
2015-May-20 22:33N 44°13' E 008°31'6 5.9
2015-May-20 21:33N 44°19' E 008°30'0 0.0
2015-May-20 20:33N 44°19' E 008°30'0 0.0
2015-May-20 19:33N 44°19' E 008°30'0 0.0
2015-May-20 18:33N 44°19' E 008°30'0 0.0
2015-May-20 17:33N 44°19' E 008°30'7 6.9
2015-May-20 16:33N 44°12' E 008°29'2219.8
2015-May-20 15:28N 43°54' E 008°12'1820.1
2015-May-20 14:33N 43°42' E 007°53'2120.1
2015-May-20 13:31N 43°29' E 007°31'51 1.5
2015-May-19 04:13N 43°05' E 006°29'1318.6
2015-May-19 03:33N 43°07' E 006°46'2020.2
2015-May-19 02:33N 43°17' E 007°09'2319.8
2015-May-19 01:22N 43°32' E 007°35'2020.3
2015-May-19 00:22N 43°44' E 007°57'1720.4
2015-May-18 23:33N 43°54' E 008°15'2120.6
2015-May-18 22:33N 44°12' E 008°30'7 6.9
2015-May-18 21:33N 44°19' E 008°30'0 0.0
2015-May-18 20:33N 44°19' E 008°30'0 0.0
2015-May-18 19:30N 44°19' E 008°30'0 0.0
2015-May-18 18:30N 44°19' E 008°30'0 0.0
2015-May-18 17:33N 44°19' E 008°30'0 0.0
2015-May-18 16:33N 44°19' E 008°30'0 0.0
2015-May-18 15:33N 44°19' E 008°30'0 0.0
2015-May-18 14:33N 44°19' E 008°30'0 0.0
2015-May-18 13:33N 44°19' E 008°30'0 0.0
2015-May-18 12:33N 44°19' E 008°30'0 0.0
2015-May-18 11:33N 44°19' E 008°30'0 0.0
2015-May-18 10:33N 44°19' E 008°30'0 0.0
2015-May-18 09:33N 44°19' E 008°30'0 0.0
2015-May-18 08:30N 44°19' E 008°30'0 0.0
2015-May-18 07:33N 44°19' E 008°30'0 0.0
2015-May-18 06:30N 44°19' E 008°30'0 0.0
2015-May-18 05:33N 44°19' E 008°30'0 0.0
2015-May-18 04:33N 44°19' E 008°30'0 0.0
2015-May-18 03:30N 44°19' E 008°30'0 0.0
2015-May-18 02:33N 44°19' E 008°30'0 0.0
2015-May-18 01:33N 44°19' E 008°30'0 0.0
2015-May-18 00:30N 44°19' E 008°30'0 0.0
2015-May-17 23:33N 44°19' E 008°30'0 0.0
2015-May-17 22:33N 44°19' E 008°30'0 0.0
2015-May-17 21:33N 44°19' E 008°30'0 0.0
2015-May-17 20:33N 44°19' E 008°30'0 0.0
2015-May-17 19:33N 44°19' E 008°30'0 0.0
2015-May-17 18:33N 44°19' E 008°30'0 0.5
2015-May-17 17:33N 44°19' E 008°30'1717.0
2015-May-17 16:33N 44°03' E 008°22'4319.4
2015-May-17 14:20N 43°34' E 007°38'1620.5
2015-May-17 13:33N 43°24' E 007°20'21719.0
2015-May-17 02:09N 41°40' E 003°02'1220.5
2015-May-17 01:33N 41°34' E 002°48'2820.7
2015-May-17 00:12N 41°19' E 002°16'5 6.8
2015-May-16 23:28N 41°22' E 002°11'0 0.2
2015-May-16 22:33N 41°22' E 002°11'0 0.0
2015-May-16 20:32N 41°22' E 002°11'0 0.0
2015-May-16 19:32N 41°22' E 002°11'0 0.0
2015-May-16 18:32N 41°22' E 002°11'5 4.7
2015-May-16 17:29N 41°17' E 002°14'1920.1
2015-May-16 16:31N 41°28' E 002°35'  
Track history (hours):
 
Tides and Currents Weather Stations Pressure Air Temp Water Temp Dewpoint Dewpoint Depression Visibility Wind Speed Wind Dir Waves Ship Positions

Florencia

Last reported at 2015-May-26 15:33 UTC. Time now 2015-May-26 15:52 UTC.
Position N 41°20' E 002°19'.

Length 186 m; draft 6.6 m.

Type: Passenger vessel. MMSI: 247105900.

Date/timePositionNaut miles runAvg speedWind from/ knotsBaromVisibWave heightAir tempDewpointWater temp
2015-May-26 15:33N 41°20' E 002°19'2219.4
2015-May-26 14:25N 41°31' E 002°45'23018.8
2015-May-26 02:14N 43°21' E 007°17'3520.3
2015-May-26 00:32N 43°42' E 007°55'2020.4
2015-May-25 23:32N 43°56' E 008°16'2020.3
2015-May-25 22:33N 44°13' E 008°31'6 6.0
2015-May-25 21:33N 44°19' E 008°30'0 0.0
2015-May-25 20:33N 44°19' E 008°30'0 0.0
2015-May-25 19:33N 44°19' E 008°30'0 0.0
2015-May-25 18:34N 44°19' E 008°30'0 0.0
2015-May-25 17:34N 44°19' E 008°30'0 0.0
2015-May-25 16:33N 44°19' E 008°30'0 0.0
2015-May-25 15:33N 44°19' E 008°30'0 0.0
2015-May-25 14:33N 44°19' E 008°30'0 0.0
2015-May-25 13:33N 44°19' E 008°30'0 0.0
2015-May-25 12:34N 44°19' E 008°30'0 0.0
2015-May-25 11:33N 44°19' E 008°30'0 0.0
2015-May-25 10:34N 44°19' E 008°30'0 0.0
2015-May-25 09:34N 44°19' E 008°30'0 0.0
2015-May-25 08:32N 44°19' E 008°30'0 0.0
2015-May-25 07:33N 44°19' E 008°30'0 0.0
2015-May-25 06:33N 44°19' E 008°30'0 0.0
2015-May-25 05:33N 44°19' E 008°30'0 0.0
2015-May-25 04:33N 44°19' E 008°30'0 0.0
2015-May-25 03:33N 44°19' E 008°30'0 0.0
2015-May-25 02:33N 44°19' E 008°30'0 0.0
2015-May-25 01:33N 44°19' E 008°30'0 0.0
2015-May-25 00:33N 44°19' E 008°30'0 0.0
2015-May-24 23:33N 44°19' E 008°30'0 0.0
2015-May-24 22:33N 44°19' E 008°30'0 0.0
2015-May-24 21:33N 44°19' E 008°30'0 0.0
2015-May-24 20:33N 44°19' E 008°30'0 0.0
2015-May-24 19:33N 44°19' E 008°30'0 0.0
2015-May-24 18:33N 44°19' E 008°30'2 2.5
2015-May-24 17:34N 44°17' E 008°32'2019.9
2015-May-24 16:33N 43°59' E 008°18'4019.7
2015-May-24 14:33N 43°33' E 007°37'23719.0
2015-May-24 02:05N 41°38' E 002°56'1220.6
2015-May-24 01:30N 41°32' E 002°42'2020.8
2015-May-24 00:33N 41°21' E 002°20'7 7.4
2015-May-23 23:32N 41°22' E 002°11'0 0.0
2015-May-23 22:33N 41°22' E 002°11'0 0.0
2015-May-23 20:18N 41°22' E 002°11'0 0.0
2015-May-23 19:33N 41°22' E 002°11'0 0.0
2015-May-23 18:33N 41°22' E 002°11'0 0.0
2015-May-23 17:33N 41°22' E 002°11'0 0.0
2015-May-23 16:24N 41°22' E 002°11'6 7.2
2015-May-23 15:32N 41°20' E 002°18'1919.1
2015-May-23 14:33N 41°28' E 002°41'2719.1
2015-May-23 13:09N 41°43' E 003°10'20819.4
2015-May-23 02:28N 43°23' E 007°18'1920.7
2015-May-23 01:33N 43°34' E 007°39'2120.9
2015-May-23 00:34N 43°46' E 008°02'2120.8
2015-May-22 23:34N 44°02' E 008°21'1818.4
2015-May-22 22:33N 44°19' E 008°30'0 0.5
2015-May-22 21:33N 44°19' E 008°30'0 0.0
2015-May-22 20:33N 44°19' E 008°30'0 0.0
2015-May-22 19:33N 44°19' E 008°30'0 0.0
2015-May-22 18:33N 44°19' E 008°30'0 0.0
2015-May-22 17:33N 44°19' E 008°30'1 0.9
2015-May-22 16:33N 44°18' E 008°31'1817.9
2015-May-22 15:33N 44°02' E 008°21'2019.5
2015-May-22 14:33N 43°48' E 008°02'2019.9
2015-May-22 13:33N 43°36' E 007°40'2120.4
2015-May-22 12:32N 43°23' E 007°18'7 0.2
2015-May-21 02:32N 43°18' E 007°10'1919.7
2015-May-21 01:33N 43°30' E 007°30'5020.5
2015-May-20 23:08N 44°03' E 008°22'1220.7
2015-May-20 22:33N 44°13' E 008°31'6 5.9
2015-May-20 21:33N 44°19' E 008°30'0 0.0
2015-May-20 20:33N 44°19' E 008°30'0 0.0
2015-May-20 19:33N 44°19' E 008°30'0 0.0
2015-May-20 18:33N 44°19' E 008°30'0 0.0
2015-May-20 17:33N 44°19' E 008°30'7 6.9
2015-May-20 16:33N 44°12' E 008°29'2219.8
2015-May-20 15:28N 43°54' E 008°12'1820.1
2015-May-20 14:33N 43°42' E 007°53'2120.1
2015-May-20 13:31N 43°29' E 007°31'51 1.5
2015-May-19 04:13N 43°05' E 006°29'1318.6
2015-May-19 03:33N 43°07' E 006°46'2020.2
2015-May-19 02:33N 43°17' E 007°09'2319.8
2015-May-19 01:22N 43°32' E 007°35'2020.3
2015-May-19 00:22N 43°44' E 007°57'1720.4
2015-May-18 23:33N 43°54' E 008°15'2120.6
2015-May-18 22:33N 44°12' E 008°30'7 6.9
2015-May-18 21:33N 44°19' E 008°30'0 0.0
2015-May-18 20:33N 44°19' E 008°30'0 0.0
2015-May-18 19:30N 44°19' E 008°30'0 0.0
2015-May-18 18:30N 44°19' E 008°30'0 0.0
2015-May-18 17:33N 44°19' E 008°30'0 0.0
2015-May-18 16:33N 44°19' E 008°30'0 0.0
2015-May-18 15:33N 44°19' E 008°30'0 0.0
2015-May-18 14:33N 44°19' E 008°30'0 0.0
2015-May-18 13:33N 44°19' E 008°30'0 0.0
2015-May-18 12:33N 44°19' E 008°30'0 0.0
2015-May-18 11:33N 44°19' E 008°30'0 0.0
2015-May-18 10:33N 44°19' E 008°30'0 0.0
2015-May-18 09:33N 44°19' E 008°30'0 0.0
2015-May-18 08:30N 44°19' E 008°30'0 0.0
2015-May-18 07:33N 44°19' E 008°30'0 0.0
2015-May-18 06:30N 44°19' E 008°30'0 0.0
2015-May-18 05:33N 44°19' E 008°30'0 0.0
2015-May-18 04:33N 44°19' E 008°30'0 0.0
2015-May-18 03:30N 44°19' E 008°30'0 0.0
2015-May-18 02:33N 44°19' E 008°30'0 0.0
2015-May-18 01:33N 44°19' E 008°30'0 0.0
2015-May-18 00:30N 44°19' E 008°30'0 0.0
2015-May-17 23:33N 44°19' E 008°30'0 0.0
2015-May-17 22:33N 44°19' E 008°30'0 0.0
2015-May-17 21:33N 44°19' E 008°30'0 0.0
2015-May-17 20:33N 44°19' E 008°30'0 0.0
2015-May-17 19:33N 44°19' E 008°30'0 0.0
2015-May-17 18:33N 44°19' E 008°30'0 0.5
2015-May-17 17:33N 44°19' E 008°30'1717.0
2015-May-17 16:33N 44°03' E 008°22'4319.4
2015-May-17 14:20N 43°34' E 007°38'1620.5
2015-May-17 13:33N 43°24' E 007°20'21719.0
2015-May-17 02:09N 41°40' E 003°02'1220.5
2015-May-17 01:33N 41°34' E 002°48'2820.7
2015-May-17 00:12N 41°19' E 002°16'5 6.8
2015-May-16 23:28N 41°22' E 002°11'0 0.2
2015-May-16 22:33N 41°22' E 002°11'0 0.0
2015-May-16 20:32N 41°22' E 002°11'0 0.0
2015-May-16 19:32N 41°22' E 002°11'0 0.0
2015-May-16 18:32N 41°22' E 002°11'5 4.7
2015-May-16 17:29N 41°17' E 002°14'1920.1
2015-May-16 16:31N 41°28' E 002°35'  

Dump ship's entire track history